Time,TemperatureF,DewpointF,PressureIn,WindDirection,WindDirectionDegrees,WindSpeedMPH,WindSpeedGustMPH,Humidity,HourlyPrecipIn,Conditions,Clouds,dailyrainin,SolarRadiationWatts/m^2,SoftwareType,DateUTC
2013-08-25 00:01:00,50.0,49.0,-100.00,SE,130,0.0,3.0,96,0.00,,,0.00,0.000000,,2013-08-25 07:01:00,
2013-08-25 00:12:00,50.0,49.0,-100.00,SE,130,0.0,3.0,96,0.00,,,0.00,0.000000,,2013-08-25 07:12:00,
2013-08-25 00:22:00,50.0,49.0,-100.00,SE,130,0.0,3.0,96,0.00,,,0.00,0.000000,,2013-08-25 07:22:00,
2013-08-25 00:52:00,49.0,48.0,-100.00,SSE,154,0.0,2.0,97,0.00,,,0.00,0.000000,,2013-08-25 07:52:00,
2013-08-25 01:02:00,49.0,48.0,-100.00,SSE,154,0.0,2.0,97,0.00,,,0.00,0.000000,,2013-08-25 08:02:00,
2013-08-25 01:12:00,49.0,48.0,-100.00,SSE,154,0.0,2.0,97,0.00,,,0.00,0.000000,,2013-08-25 08:12:00,
2013-08-25 01:21:00,49.0,48.0,-100.00,SSE,154,0.0,2.0,97,0.00,,,0.00,0.000000,,2013-08-25 08:21:00,
2013-08-25 01:52:00,49.0,47.0,-100.00,SSW,200,0.0,3.0,94,0.00,,,0.00,0.000000,,2013-08-25 08:52:00,
2013-08-25 02:01:00,49.0,47.0,-100.00,SSW,200,0.0,3.0,94,0.00,,,0.00,0.000000,,2013-08-25 09:01:00,
2013-08-25 02:11:00,49.0,47.0,-100.00,SSW,200,0.0,3.0,94,0.00,,,0.00,0.000000,,2013-08-25 09:11:00,
2013-08-25 02:22:00,49.0,47.0,-100.00,SSW,200,0.0,3.0,94,0.00,,,0.00,0.000000,,2013-08-25 09:22:00,
2013-08-25 02:55:00,48.0,47.0,-100.00,SSE,165,0.0,3.0,96,0.00,,,0.00,0.000000,,2013-08-25 09:55:00,
2013-08-25 03:03:00,48.0,47.0,-100.00,SSE,165,0.0,3.0,96,0.00,,,0.00,0.000000,,2013-08-25 10:03:00,
2013-08-25 03:12:00,48.0,47.0,-100.00,SSE,165,0.0,3.0,96,0.00,,,0.00,0.000000,,2013-08-25 10:12:00,
2013-08-25 03:22:00,48.0,47.0,-100.00,SSE,165,0.0,3.0,96,0.00,,,0.00,0.000000,,2013-08-25 10:22:00,
2013-08-25 03:53:00,48.0,47.0,-100.00,SSE,150,1.0,3.0,96,0.00,,,0.00,0.000000,,2013-08-25 10:53:00,
2013-08-25 04:02:00,48.0,47.0,-100.00,SSE,150,1.0,3.0,96,0.00,,,0.00,0.000000,,2013-08-25 11:02:00,
2013-08-25 04:11:00,48.0,47.0,-100.00,SSE,150,1.0,3.0,96,0.00,,,0.00,0.000000,,2013-08-25 11:11:00,
2013-08-25 04:22:00,48.0,47.0,-100.00,SSE,150,1.0,3.0,96,0.00,,,0.00,0.000000,,2013-08-25 11:22:00,
2013-08-25 04:52:00,48.0,47.0,-100.00,South,181,1.0,2.0,96,0.00,,,0.00,0.000000,,2013-08-25 11:52:00,
2013-08-25 05:01:00,48.0,47.0,-100.00,South,181,1.0,2.0,96,0.00,,,0.00,0.000000,,2013-08-25 12:01:00,
2013-08-25 05:12:00,48.0,47.0,-100.00,South,181,1.0,2.0,96,0.00,,,0.00,0.000000,,2013-08-25 12:12:00,
2013-08-25 05:22:00,48.0,47.0,-100.00,South,181,1.0,2.0,96,0.00,,,0.00,0.000000,,2013-08-25 12:22:00,
2013-08-25 05:52:00,47.0,46.0,-100.00,SE,138,2.0,4.0,96,0.00,,,0.00,0.000000,,2013-08-25 12:52:00,
2013-08-25 06:02:00,47.0,46.0,-100.00,SE,138,2.0,4.0,96,0.00,,,0.00,0.000000,,2013-08-25 13:02:00,
2013-08-25 06:11:00,47.0,46.0,-100.00,SE,138,2.0,4.0,96,0.00,,,0.00,0.000000,,2013-08-25 13:11:00,
2013-08-25 06:21:00,47.0,46.0,-100.00,SE,138,2.0,4.0,96,0.00,,,0.00,0.000000,,2013-08-25 13:21:00,
2013-08-25 06:52:00,47.0,45.0,-100.00,SSW,200,1.0,3.0,94,0.00,,,0.00,0.000000,,2013-08-25 13:52:00,
2013-08-25 07:02:00,47.0,45.0,-100.00,SSW,200,1.0,3.0,94,0.00,,,0.00,0.000000,,2013-08-25 14:02:00,
2013-08-25 07:11:00,47.0,45.0,-100.00,SSW,200,1.0,3.0,94,0.00,,,0.00,0.000000,,2013-08-25 14:11:00,
2013-08-25 07:23:00,47.0,45.0,-100.00,SSW,200,1.0,3.0,94,0.00,,,0.00,0.000000,,2013-08-25 14:23:00,
2013-08-25 07:52:00,48.0,45.0,-100.00,ESE,117,0.0,3.0,88,0.00,,,-99.99,17.000000,,2013-08-25 14:52:00,
2013-08-25 08:01:00,48.0,45.0,-100.00,ESE,117,0.0,3.0,88,0.00,,,-99.99,17.000000,,2013-08-25 15:01:00,
2013-08-25 08:11:00,48.0,45.0,-100.00,ESE,117,0.0,3.0,88,0.00,,,-99.99,17.000000,,2013-08-25 15:11:00,
2013-08-25 08:23:00,48.0,45.0,-100.00,ESE,117,0.0,3.0,88,0.00,,,-99.99,17.000000,,2013-08-25 15:23:00,
2013-08-25 08:55:00,55.0,49.0,-100.00,NE,51,0.0,4.0,79,0.00,,,0.00,200.000000,,2013-08-25 15:55:00,
2013-08-25 09:04:00,55.0,49.0,-100.00,NE,51,0.0,4.0,79,0.00,,,0.00,200.000000,,2013-08-25 16:04:00,
2013-08-25 09:13:00,55.0,49.0,-100.00,NE,51,0.0,4.0,79,0.00,,,0.00,200.000000,,2013-08-25 16:13:00,
2013-08-25 09:24:00,55.0,49.0,-100.00,NE,51,0.0,4.0,79,0.00,,,0.00,200.000000,,2013-08-25 16:24:00,
2013-08-25 09:54:00,59.0,47.0,-100.00,ENE,62,2.0,4.0,64,0.00,,,-99.99,362.000000,,2013-08-25 16:54:00,
2013-08-25 10:03:00,59.0,47.0,-100.00,ENE,62,2.0,4.0,64,0.00,,,-99.99,362.000000,,2013-08-25 17:03:00,
2013-08-25 10:11:00,59.0,47.0,-100.00,ENE,62,2.0,4.0,64,0.00,,,-99.99,362.000000,,2013-08-25 17:11:00,
2013-08-25 10:22:00,59.0,47.0,-100.00,ENE,62,2.0,4.0,64,0.00,,,-99.99,362.000000,,2013-08-25 17:22:00,
2013-08-25 10:53:00,60.0,46.0,-100.00,North,352,3.0,7.0,60,0.00,,,0.00,515.000000,,2013-08-25 17:53:00,
2013-08-25 11:02:00,60.0,46.0,-100.00,North,352,3.0,7.0,60,0.00,,,0.00,515.000000,,2013-08-25 18:02:00,
2013-08-25 11:12:00,60.0,46.0,-100.00,North,352,3.0,7.0,60,0.00,,,0.00,515.000000,,2013-08-25 18:12:00,
2013-08-25 11:21:00,60.0,46.0,-100.00,North,352,3.0,7.0,60,0.00,,,0.00,515.000000,,2013-08-25 18:21:00,
2013-08-25 11:52:00,63.0,46.0,-100.00,NW,315,3.0,9.0,54,0.00,,,0.00,644.000000,,2013-08-25 18:52:00,
2013-08-25 12:02:00,63.0,46.0,-100.00,NW,315,3.0,9.0,54,0.00,,,0.00,644.000000,,2013-08-25 19:02:00,
2013-08-25 12:11:00,63.0,46.0,-100.00,NW,315,3.0,9.0,54,0.00,,,0.00,644.000000,,2013-08-25 19:11:00,
2013-08-25 12:22:00,63.0,46.0,-100.00,NW,315,3.0,9.0,54,0.00,,,0.00,644.000000,,2013-08-25 19:22:00,
2013-08-25 12:53:00,65.0,47.0,-100.00,NW,305,5.0,11.0,52,0.00,,,0.00,751.000000,,2013-08-25 19:53:00,
2013-08-25 13:03:00,65.0,47.0,-100.00,NW,305,5.0,11.0,52,0.00,,,0.00,751.000000,,2013-08-25 20:03:00,
2013-08-25 13:12:00,65.0,47.0,-100.00,NW,305,5.0,11.0,52,0.00,,,0.00,751.000000,,2013-08-25 20:12:00,
2013-08-25 13:23:00,65.0,47.0,-100.00,NW,305,5.0,11.0,52,0.00,,,0.00,751.000000,,2013-08-25 20:23:00,
2013-08-25 13:53:00,62.0,49.0,-100.00,NW,313,5.0,12.0,62,0.00,,,0.00,596.000000,,2013-08-25 20:53:00,
2013-08-25 14:01:00,62.0,49.0,-100.00,NW,313,5.0,12.0,62,0.00,,,0.00,596.000000,,2013-08-25 21:01:00,
2013-08-25 14:12:00,62.0,49.0,-100.00,NW,313,5.0,12.0,62,0.00,,,0.00,596.000000,,2013-08-25 21:12:00,
2013-08-25 14:22:00,62.0,49.0,-100.00,NW,313,5.0,12.0,62,0.00,,,0.00,596.000000,,2013-08-25 21:22:00,
2013-08-25 14:55:00,63.0,50.0,-100.00,NW,307,4.0,10.0,62,0.00,,,0.00,303.000000,,2013-08-25 21:55:00,
2013-08-25 15:03:00,63.0,50.0,-100.00,NW,307,4.0,10.0,62,0.00,,,0.00,303.000000,,2013-08-25 22:03:00,
2013-08-25 15:14:00,63.0,50.0,-100.00,NW,307,4.0,10.0,62,0.00,,,0.00,303.000000,,2013-08-25 22:14:00,
2013-08-25 15:23:00,63.0,50.0,-100.00,NW,307,4.0,10.0,62,0.00,,,0.00,303.000000,,2013-08-25 22:23:00,
2013-08-25 15:53:00,62.0,49.0,-100.00,WNW,293,4.0,10.0,63,0.00,,,0.00,249.000000,,2013-08-25 22:53:00,
2013-08-25 16:03:00,62.0,49.0,-100.00,WNW,293,4.0,10.0,63,0.00,,,0.00,249.000000,,2013-08-25 23:03:00,
2013-08-25 16:12:00,62.0,49.0,-100.00,WNW,293,4.0,10.0,63,0.00,,,0.00,249.000000,,2013-08-25 23:12:00,
2013-08-25 16:23:00,62.0,49.0,-100.00,WNW,293,4.0,10.0,63,0.00,,,0.00,249.000000,,2013-08-25 23:23:00,
2013-08-25 16:53:00,60.0,49.0,-100.00,NW,305,4.0,10.0,66,0.00,,,0.00,129.000000,,2013-08-25 23:53:00,
2013-08-25 17:02:00,60.0,49.0,-100.00,NW,305,4.0,10.0,66,0.00,,,0.00,129.000000,,2013-08-26 00:02:00,
2013-08-25 17:11:00,60.0,49.0,-100.00,NW,305,4.0,10.0,66,0.00,,,0.00,129.000000,,2013-08-26 00:11:00,
2013-08-25 17:22:00,60.0,49.0,-100.00,NW,305,4.0,10.0,66,0.00,,,0.00,129.000000,,2013-08-26 00:22:00,
2013-08-25 17:52:00,57.0,48.0,-100.00,West,267,8.0,14.0,73,0.00,,,0.00,55.000000,,2013-08-26 00:52:00,
2013-08-25 18:01:00,57.0,48.0,-100.00,West,267,8.0,14.0,73,0.00,,,0.00,55.000000,,2013-08-26 01:01:00,
2013-08-25 18:11:00,57.0,48.0,-100.00,West,267,8.0,14.0,73,0.00,,,0.00,55.000000,,2013-08-26 01:11:00,
2013-08-25 18:22:00,57.0,48.0,-100.00,West,267,8.0,14.0,73,0.00,,,0.00,55.000000,,2013-08-26 01:22:00,
2013-08-25 18:52:00,56.0,50.0,-100.00,WSW,252,5.0,11.0,79,0.00,,,0.00,30.000000,,2013-08-26 01:52:00,
2013-08-25 19:02:00,56.0,50.0,-100.00,WSW,252,5.0,11.0,79,0.00,,,0.00,30.000000,,2013-08-26 02:02:00,
2013-08-25 19:11:00,56.0,50.0,-100.00,WSW,252,5.0,11.0,79,0.00,,,0.00,30.000000,,2013-08-26 02:11:00,
2013-08-25 19:21:00,56.0,50.0,-100.00,WSW,252,5.0,11.0,79,0.00,,,0.00,30.000000,,2013-08-26 02:21:00,
2013-08-25 19:52:00,57.0,50.0,-100.00,ESE,122,1.0,6.0,77,0.00,,,0.00,50.000000,,2013-08-26 02:52:00,
2013-08-25 20:02:00,57.0,50.0,-100.00,ESE,122,1.0,6.0,77,0.00,,,0.00,50.000000,,2013-08-26 03:02:00,
2013-08-25 20:11:00,57.0,50.0,-100.00,ESE,122,1.0,6.0,77,0.00,,,0.00,50.000000,,2013-08-26 03:11:00,
2013-08-25 20:21:00,57.0,50.0,-100.00,ESE,122,1.0,6.0,77,0.00,,,0.00,50.000000,,2013-08-26 03:21:00,
2013-08-25 20:56:00,56.0,49.0,-100.00,SSE,159,1.0,3.0,78,0.00,,,0.00,24.000000,,2013-08-26 03:56:00,
2013-08-25 21:05:00,56.0,49.0,-100.00,SSE,159,1.0,3.0,78,0.00,,,0.00,24.000000,,2013-08-26 04:05:00,
2013-08-25 21:14:00,56.0,49.0,-100.00,SSE,159,1.0,3.0,78,0.00,,,0.00,24.000000,,2013-08-26 04:14:00,
2013-08-25 21:24:00,56.0,49.0,-100.00,SSE,159,1.0,3.0,78,0.00,,,0.00,24.000000,,2013-08-26 04:24:00,
2013-08-25 21:53:00,54.0,48.0,-100.00,SE,139,0.0,3.0,79,0.00,,,0.00,0.000000,,2013-08-26 04:53:00,
2013-08-25 22:03:00,54.0,48.0,-100.00,SE,139,0.0,3.0,79,0.00,,,0.00,0.000000,,2013-08-26 05:03:00,
2013-08-25 22:13:00,54.0,48.0,-100.00,SE,139,0.0,3.0,79,0.00,,,0.00,0.000000,,2013-08-26 05:13:00,
2013-08-25 22:22:00,54.0,48.0,-100.00,SE,139,0.0,3.0,79,0.00,,,0.00,0.000000,,2013-08-26 05:22:00,
2013-08-25 22:52:00,54.0,48.0,-100.00,SSW,202,0.0,3.0,80,0.00,,,0.00,0.000000,,2013-08-26 05:52:00,
2013-08-25 23:02:00,54.0,48.0,-100.00,SSW,202,0.0,3.0,80,0.00,,,0.00,0.000000,,2013-08-26 06:02:00,
2013-08-25 23:12:00,54.0,48.0,-100.00,SSW,202,0.0,3.0,80,0.00,,,0.00,0.000000,,2013-08-26 06:12:00,
2013-08-25 23:21:00,54.0,48.0,-100.00,SSW,202,0.0,3.0,80,0.00,,,0.00,0.000000,,2013-08-26 06:21:00,
2013-08-25 23:52:00,52.0,48.0,-100.00,ESE,116,2.0,4.0,85,0.00,,,0.00,0.000000,,2013-08-26 06:52:00,